createdAt,value
2023-04-08T00:00:20.673Z,25.73
2023-04-08T00:05:24.786Z,30.42
2023-04-08T00:10:27.413Z,30.05
2023-04-08T00:15:31.066Z,26.92
2023-04-08T00:20:35.419Z,28.77
2023-04-08T00:25:38.007Z,26.63
2023-04-08T00:30:40.673Z,27.50
2023-04-08T00:35:44.653Z,26.33
2023-04-08T00:40:47.334Z,25.17
2023-04-08T00:45:50.309Z,26.43
2023-04-08T00:50:54.383Z,26.42
2023-04-08T00:55:57.064Z,24.75
2023-04-08T01:01:06.713Z,27.00
2023-04-08T01:06:16.698Z,23.00
2023-04-08T01:11:21.379Z,24.25
2023-04-08T01:16:27.200Z,24.70
2023-04-08T01:21:31.317Z,24.52
2023-04-08T01:26:36.456Z,26.35
2023-04-08T01:31:40.401Z,24.83
2023-04-08T01:36:45.485Z,25.60
2023-04-08T01:41:50.006Z,24.88
2023-04-08T01:46:54.118Z,23.55
2023-04-08T01:51:59.712Z,27.58
2023-04-08T01:57:09.705Z,29.42
2023-04-08T02:02:14.159Z,32.92
2023-04-08T02:07:17.959Z,32.45
2023-04-08T02:12:21.878Z,33.03
2023-04-08T02:17:30.958Z,32.58
2023-04-08T02:22:39.980Z,34.67
2023-04-08T02:27:45.428Z,34.85
2023-04-08T02:32:48.770Z,34.42
2023-04-08T02:37:51.615Z,33.05
2023-04-08T02:42:56.506Z,34.80
2023-04-08T02:48:00.743Z,31.63
2023-04-08T02:53:03.464Z,30.48
2023-04-08T02:58:07.392Z,31.77
2023-04-08T03:03:10.086Z,30.33
2023-04-08T03:08:12.740Z,28.73
2023-04-08T03:13:16.889Z,28.85
2023-04-08T03:18:19.462Z,26.73
2023-04-08T03:23:21.990Z,27.45
2023-04-08T03:28:25.879Z,26.60
2023-04-08T03:33:28.553Z,27.60
2023-04-08T03:38:31.143Z,28.52
2023-04-08T03:43:36.757Z,28.52
2023-04-08T03:48:40.489Z,25.05
2023-04-08T03:53:43.017Z,25.15
2023-04-08T03:58:47.978Z,26.80
2023-04-08T04:03:50.775Z,24.55
2023-04-08T04:08:54.789Z,22.57
2023-04-08T04:13:58.656Z,23.73
2023-04-08T04:19:01.342Z,23.83
2023-04-08T04:24:04.024Z,25.00
2023-04-08T04:29:07.893Z,22.50
2023-04-08T04:34:10.413Z,24.73
2023-04-08T04:39:13.017Z,24.85
2023-04-08T04:44:17.004Z,24.35
2023-04-08T04:49:19.584Z,23.95
2023-04-08T04:54:22.217Z,26.35
2023-04-08T04:59:26.239Z,23.80
2023-04-08T05:04:28.814Z,24.30
2023-04-08T05:09:31.641Z,24.77
2023-04-08T05:14:35.751Z,23.00
2023-04-08T05:19:38.278Z,24.13
2023-04-08T05:24:41.007Z,24.70
2023-04-08T05:29:44.940Z,24.30
2023-04-08T05:34:47.509Z,24.27
2023-04-08T05:39:50.050Z,21.95
2023-04-08T05:44:53.928Z,21.85
2023-04-08T05:49:56.754Z,20.40
2023-04-08T05:54:59.305Z,19.77
2023-04-08T06:00:03.367Z,20.75
2023-04-08T06:05:06.768Z,18.58
2023-04-08T06:10:10.144Z,19.83
2023-04-08T06:15:14.048Z,16.55
2023-04-08T06:20:16.616Z,16.15
2023-04-08T06:25:19.386Z,17.08
2023-04-08T06:30:23.677Z,14.87
2023-04-08T06:35:26.273Z,12.98
2023-04-08T06:40:29.000Z,12.23
2023-04-08T06:45:32.988Z,10.40
2023-04-08T06:50:35.974Z,8.10
2023-04-08T06:55:38.576Z,8.05
2023-04-08T07:00:43.099Z,7.83
2023-04-08T07:05:45.711Z,7.70
2023-04-08T07:10:48.296Z,8.57
2023-04-08T07:15:53.454Z,9.85
2023-04-08T07:20:56.495Z,9.52
2023-04-08T07:26:03.478Z,10.15
2023-04-08T07:31:16.041Z,9.80
2023-04-08T07:36:18.785Z,10.88
2023-04-08T07:41:21.660Z,10.37
2023-04-08T07:46:25.676Z,10.40
2023-04-08T07:51:29.066Z,10.80
2023-04-08T07:56:31.681Z,9.57
2023-04-08T08:01:35.983Z,10.43
2023-04-08T08:06:38.588Z,9.43
2023-04-08T08:11:41.280Z,9.30
2023-04-08T08:16:45.553Z,9.47
2023-04-08T08:21:48.207Z,10.10
2023-04-08T08:26:51.142Z,10.77
2023-04-08T08:31:55.119Z,9.70
2023-04-08T08:36:58.375Z,9.60
2023-04-08T08:42:01.374Z,8.13
2023-04-08T08:47:06.410Z,7.55
2023-04-08T08:52:09.277Z,6.25
2023-04-08T08:57:18.574Z,6.68
2023-04-08T09:02:29.028Z,6.60
2023-04-08T09:07:37.380Z,7.13
2023-04-08T09:12:55.398Z,7.70
2023-04-08T09:17:59.597Z,7.10
2023-04-08T09:23:03.591Z,7.75
2023-04-08T09:28:06.559Z,7.00
2023-04-08T09:38:13.279Z,8.23
2023-04-08T09:43:19.327Z,7.30
2023-04-08T09:48:28.797Z,7.28
2023-04-08T09:53:36.285Z,7.38
2023-04-08T09:58:43.880Z,8.43
2023-04-08T10:03:52.030Z,8.57
2023-04-08T10:08:55.593Z,8.35
2023-04-08T10:13:58.196Z,8.95
2023-04-08T10:19:02.169Z,8.40
2023-04-08T10:24:08.562Z,9.07
2023-04-08T10:29:33.720Z,9.00
2023-04-08T10:34:53.806Z,9.25
2023-04-08T10:39:56.345Z,8.60
2023-04-08T10:45:03.285Z,9.40
2023-04-08T10:50:15.803Z,10.95
2023-04-08T10:55:24.516Z,9.20
2023-04-08T11:00:35.377Z,9.77
2023-04-08T11:05:40.210Z,9.93
2023-04-08T11:10:45.020Z,10.05
2023-04-08T11:15:47.734Z,11.05
2023-04-08T11:20:53.788Z,10.38
2023-04-08T11:25:56.990Z,10.63
2023-04-08T11:31:00.510Z,10.70
2023-04-08T11:36:05.275Z,10.75
2023-04-08T11:41:07.982Z,10.48
2023-04-08T11:46:11.697Z,9.57
2023-04-08T11:51:17.343Z,10.13
2023-04-08T11:56:22.564Z,10.50
2023-04-08T12:01:25.754Z,10.50
2023-04-08T12:06:31.691Z,10.43
2023-04-08T12:11:34.395Z,10.02
2023-04-08T12:16:37.503Z,10.07
2023-04-08T12:21:41.511Z,10.60
2023-04-08T12:26:44.060Z,11.15
2023-04-08T12:31:46.665Z,11.55
2023-04-08T12:36:50.684Z,12.55
2023-04-08T12:41:53.297Z,10.82
2023-04-08T12:46:56.162Z,11.38
2023-04-08T12:52:00.129Z,11.52
2023-04-08T12:57:02.955Z,12.18
2023-04-08T13:02:05.812Z,10.82
2023-04-08T13:07:11.143Z,10.48
2023-04-08T13:12:14.464Z,10.40
2023-04-08T13:17:17.025Z,11.30
2023-04-08T13:22:21.080Z,10.57
2023-04-08T13:27:23.686Z,11.65
2023-04-08T13:32:26.286Z,11.82
2023-04-08T13:37:30.264Z,11.13
2023-04-08T13:42:33.015Z,10.10
2023-04-08T13:47:37.642Z,11.38
2023-04-08T13:52:42.103Z,10.98
2023-04-08T13:57:44.710Z,13.07
2023-04-08T14:02:47.418Z,12.95
2023-04-08T14:07:51.396Z,10.63
2023-04-08T14:12:54.382Z,11.52
2023-04-08T14:17:57.060Z,10.43
2023-04-08T14:23:01.030Z,9.82
2023-04-08T14:28:03.589Z,12.40
2023-04-08T14:33:06.434Z,11.05
2023-04-08T14:38:10.533Z,10.88
2023-04-08T14:43:13.620Z,10.82
2023-04-08T14:48:16.165Z,11.18
2023-04-08T14:53:20.085Z,10.63
2023-04-08T14:58:22.929Z,10.57
2023-04-08T15:03:25.710Z,9.88
2023-04-08T15:08:29.916Z,9.32
2023-04-08T15:13:32.529Z,9.27
2023-04-08T15:18:36.242Z,9.57
2023-04-08T15:23:42.021Z,10.63
2023-04-08T15:28:44.649Z,11.00
2023-04-08T15:33:48.749Z,11.38
2023-04-08T15:38:53.090Z,10.60
2023-04-08T15:43:56.171Z,10.77
2023-04-08T15:49:00.229Z,11.00
2023-04-08T15:54:05.375Z,13.13
2023-04-08T15:59:07.965Z,12.48
2023-04-08T16:04:10.802Z,13.50
2023-04-08T16:09:14.777Z,12.40
2023-04-08T16:14:17.384Z,13.50
2023-04-08T16:19:22.200Z,13.93
2023-04-08T16:24:26.446Z,14.73
2023-04-08T16:29:29.013Z,16.52
2023-04-08T16:34:31.863Z,14.70
2023-04-08T16:39:35.814Z,14.43
2023-04-08T16:44:38.419Z,15.02
2023-04-08T16:49:40.990Z,14.80
2023-04-08T16:54:46.101Z,15.63
2023-04-08T16:59:48.678Z,16.17
2023-04-08T17:04:52.369Z,17.40
2023-04-08T17:09:56.307Z,20.23
2023-04-08T17:14:59.045Z,17.70
2023-04-08T17:20:01.721Z,16.43
2023-04-08T17:25:06.614Z,16.33
2023-04-08T17:30:11.471Z,16.30
2023-04-08T17:35:14.323Z,15.80
2023-04-08T17:40:18.653Z,16.47
2023-04-08T17:45:21.356Z,16.15
2023-04-08T17:50:25.462Z,17.17
2023-04-08T17:55:29.617Z,16.30
2023-04-08T18:00:32.129Z,16.63
2023-04-08T18:05:34.681Z,17.07
2023-04-08T18:10:39.175Z,16.37
2023-04-08T18:15:42.078Z,16.83
2023-04-08T18:20:44.641Z,16.98
2023-04-08T18:25:50.092Z,17.40
2023-04-08T18:30:53.515Z,18.10
2023-04-08T18:41:03.125Z,17.48
2023-04-08T18:46:05.849Z,19.17
2023-04-08T18:51:08.728Z,17.47
2023-04-08T18:56:17.281Z,18.17
2023-04-08T19:01:19.880Z,19.23
2023-04-08T19:06:22.807Z,21.63
2023-04-08T19:11:28.893Z,22.58
2023-04-08T19:16:31.542Z,20.17
2023-04-08T19:21:37.597Z,22.80
2023-04-08T19:26:41.606Z,20.63
2023-04-08T19:31:44.324Z,19.55
2023-04-08T19:36:47.838Z,20.70
2023-04-08T19:46:54.660Z,21.02
2023-04-08T19:51:58.495Z,21.63
2023-04-08T19:57:02.546Z,21.73
2023-04-08T20:02:05.257Z,21.67
2023-04-08T20:07:08.066Z,22.95
2023-04-08T20:12:12.094Z,24.33
2023-04-08T20:17:15.466Z,24.83
2023-04-08T20:22:18.488Z,22.50
2023-04-08T20:27:22.441Z,24.85
2023-04-08T20:32:25.105Z,25.75
2023-04-08T20:37:28.635Z,26.00
2023-04-08T20:47:35.134Z,26.77
2023-04-08T20:52:37.833Z,25.83
2023-04-08T20:57:44.254Z,27.27
2023-04-08T21:02:47.718Z,29.17
2023-04-08T21:07:50.531Z,30.58
2023-04-08T21:12:54.525Z,28.47
2023-04-08T21:17:57.199Z,27.90
2023-04-08T21:23:00.460Z,31.80
2023-04-08T21:28:04.434Z,30.85
2023-04-08T21:33:07.126Z,31.35
2023-04-08T21:38:09.760Z,30.57
2023-04-08T21:43:13.691Z,30.90
2023-04-08T21:48:17.213Z,30.20
2023-04-08T21:53:20.597Z,30.85
2023-04-08T21:58:24.560Z,30.30
2023-04-08T22:03:27.579Z,29.25
2023-04-08T22:08:32.378Z,29.73
2023-04-08T22:13:36.393Z,28.45
2023-04-08T22:18:39.026Z,27.70
2023-04-08T22:23:42.110Z,25.50
2023-04-08T22:28:46.012Z,29.33
2023-04-08T22:33:48.608Z,27.02
2023-04-08T22:38:51.184Z,25.53
2023-04-08T22:43:55.580Z,26.53
2023-04-08T22:48:58.145Z,26.27
2023-04-08T22:54:01.026Z,25.50
2023-04-08T22:59:04.918Z,23.00
2023-04-08T23:04:07.567Z,23.60
2023-04-08T23:09:10.263Z,23.97
2023-04-08T23:14:14.180Z,24.90
2023-04-08T23:19:16.762Z,23.48
2023-04-08T23:24:19.350Z,23.30
2023-04-08T23:29:23.374Z,24.73
2023-04-08T23:34:26.042Z,24.77
2023-04-08T23:39:30.829Z,23.13
2023-04-08T23:44:34.762Z,26.08
2023-04-08T23:49:37.325Z,23.27
2023-04-08T23:54:40.338Z,23.50
2023-04-08T23:59:44.256Z,23.23
